Time;durP1;ratioP1;P1;durP2;ratioP2;P2;SDS_P1;SDS_P2;PMS_P1;PMS_P2;Temp;Humidity;BMP_temperature;BMP_pressure;BME280_temperature;BME280_humidity;BME280_pressure;Samples;Min_cycle;Max_cycle;Signal;HPM_P1;HPM_P2
2021/11/15 00:00:52;;;;;;;24.73;12.17;;;6.40;99.90;;;;;;5038369;28;20796;-71
2021/11/15 00:03:19;;;;;;;24.63;11.83;;;6.40;99.90;;;;;;5038322;28;20547;-72
2021/11/15 00:05:44;;;;;;;24.83;12.43;;;6.40;99.90;;;;;;5039794;28;20395;-70
2021/11/15 00:08:10;;;;;;;21.17;12.40;;;6.40;99.90;;;;;;5039773;28;20497;-71
2021/11/15 00:10:35;;;;;;;29.33;11.93;;;6.40;99.90;;;;;;5039830;28;20329;-72
2021/11/15 00:13:01;;;;;;;22.00;12.23;;;6.40;99.90;;;;;;5038099;28;20163;-71
2021/11/15 00:15:29;;;;;;;16.50;9.00;;;6.40;99.90;;;;;;5038288;28;20172;-71
2021/11/15 00:17:56;;;;;;;25.50;14.10;;;6.40;99.90;;;;;;5038908;28;20490;-71
2021/11/15 00:20:22;;;;;;;26.07;11.93;;;6.40;99.90;;;;;;5038373;28;20430;-71
2021/11/15 00:22:51;;;;;;;22.93;10.70;;;6.40;99.90;;;;;;5038681;28;20805;-71
2021/11/15 00:25:19;;;;;;;23.80;11.70;;;6.40;99.90;;;;;;5038744;28;20784;-72
2021/11/15 00:27:48;;;;;;;27.53;13.47;;;6.40;99.90;;;;;;5039064;28;20461;-71
2021/11/15 00:30:17;;;;;;;23.10;11.20;;;6.40;99.90;;;;;;5038849;28;20433;-71
2021/11/15 00:32:46;;;;;;;28.40;14.30;;;6.40;99.90;;;;;;5038871;28;20460;-71
2021/11/15 00:35:12;;;;;;;32.30;13.60;;;6.40;99.90;;;;;;5038655;28;20468;-71
2021/11/15 00:37:39;;;;;;;22.63;10.83;;;6.40;99.90;;;;;;5038289;28;20441;-72
2021/11/15 00:40:08;;;;;;;26.90;14.17;;;6.40;99.90;;;;;;5037932;28;20470;-70
2021/11/15 00:42:34;;;;;;;23.20;11.50;;;6.40;99.90;;;;;;5035621;28;20451;-72
2021/11/15 00:44:59;;;;;;;27.27;10.60;;;6.40;99.90;;;;;;5037335;28;20476;-71
2021/11/15 00:47:25;;;;;;;22.37;14.07;;;6.30;99.90;;;;;;5038457;28;20212;-71
2021/11/15 00:49:50;;;;;;;30.83;12.97;;;6.30;99.90;;;;;;5036963;28;20196;-69
2021/11/15 00:52:16;;;;;;;28.53;12.10;;;6.30;99.90;;;;;;5034053;28;20561;-68
2021/11/15 00:54:44;;;;;;;28.17;12.80;;;6.30;99.90;;;;;;5033825;28;20301;-69
2021/11/15 00:57:12;;;;;;;21.37;10.10;;;6.30;99.90;;;;;;5033924;28;20175;-69
2021/11/15 00:59:38;;;;;;;20.77;10.67;;;6.30;99.90;;;;;;5016034;28;20446;-69
2021/11/15 01:02:04;;;;;;;23.37;11.97;;;6.30;99.90;;;;;;5033869;28;20414;-68
2021/11/15 01:04:29;;;;;;;26.23;11.20;;;6.30;99.90;;;;;;5035937;28;20314;-70
2021/11/15 01:06:55;;;;;;;26.13;11.60;;;6.30;99.90;;;;;;5036625;28;20466;-72
2021/11/15 01:09:24;;;;;;;24.07;12.87;;;6.40;99.90;;;;;;5037444;28;20214;-72
2021/11/15 01:11:52;;;;;;;26.77;12.90;;;6.40;99.90;;;;;;5038108;28;20441;-69
2021/11/15 01:14:17;;;;;;;21.50;12.50;;;6.40;99.90;;;;;;5037012;28;20468;-71
2021/11/15 01:16:46;;;;;;;20.10;10.53;;;6.40;99.90;;;;;;5037834;28;20438;-71
2021/11/15 01:19:14;;;;;;;25.90;10.90;;;6.40;99.90;;;;;;5037361;28;20219;-72
2021/11/15 01:21:41;;;;;;;20.33;10.93;;;6.40;99.90;;;;;;5037899;28;20989;-71
2021/11/15 01:24:08;;;;;;;26.57;11.57;;;6.40;99.90;;;;;;5022828;28;20890;-72
2021/11/15 01:26:33;;;;;;;24.30;12.20;;;6.30;99.90;;;;;;5016372;28;21007;-71
2021/11/15 01:28:59;;;;;;;19.70;9.67;;;6.30;99.90;;;;;;5017223;28;20435;-71
2021/11/15 01:31:24;;;;;;;22.63;10.20;;;6.30;99.90;;;;;;5017409;28;20175;-72
2021/11/15 01:33:51;;;;;;;23.33;12.30;;;6.30;99.90;;;;;;5028311;28;20199;-70
2021/11/15 01:36:17;;;;;;;24.17;11.73;;;6.30;99.90;;;;;;5036917;28;20414;-71
2021/11/15 01:38:42;;;;;;;22.10;12.07;;;6.30;99.90;;;;;;5038316;28;20183;-70
2021/11/15 01:41:11;;;;;;;28.30;13.43;;;6.30;99.90;;;;;;5033191;28;20297;-70
2021/11/15 01:43:40;;;;;;;20.20;12.13;;;6.30;99.90;;;;;;5032138;28;20171;-70
2021/11/15 01:46:11;;;;;;;24.43;12.43;;;6.30;99.90;;;;;;5033556;28;20480;-70
2021/11/15 01:48:40;;;;;;;25.93;12.17;;;6.30;99.90;;;;;;5031924;28;20442;-69
2021/11/15 01:51:05;;;;;;;25.40;11.80;;;6.30;99.90;;;;;;5033112;28;20414;-69
2021/11/15 01:53:31;;;;;;;24.57;13.40;;;6.30;99.90;;;;;;5033202;28;20414;-71
2021/11/15 01:55:59;;;;;;;19.50;10.97;;;6.30;99.90;;;;;;5032975;28;20168;-70
2021/11/15 01:58:25;;;;;;;23.20;11.70;;;6.30;99.90;;;;;;5032700;28;20167;-70
2021/11/15 02:00:57;;;;;;;26.97;12.03;;;6.30;99.90;;;;;;5032629;28;20430;-70
2021/11/15 02:03:24;;;;;;;18.13;11.30;;;6.30;99.90;;;;;;5032969;28;20424;-71
2021/11/15 02:05:50;;;;;;;23.80;11.50;;;6.40;99.90;;;;;;5033907;28;20411;-73
2021/11/15 02:08:16;;;;;;;16.30;9.60;;;6.30;99.90;;;;;;5037872;28;20417;-73
2021/11/15 02:10:46;;;;;;;24.00;13.23;;;6.30;99.90;;;;;;5037047;28;20517;-72
2021/11/15 02:13:17;;;;;;;20.40;10.73;;;6.40;99.90;;;;;;5038252;28;20932;-71
2021/11/15 02:15:43;;;;;;;27.77;11.17;;;6.40;99.90;;;;;;5036679;28;20540;-72
2021/11/15 02:18:08;;;;;;;19.73;8.33;;;6.40;99.90;;;;;;5035543;28;20479;-71
2021/11/15 02:21:03;;;;;;;23.03;12.27;;;6.40;99.90;;;;;;5020584;28;20447;-70
2021/11/15 02:23:31;;;;;;;25.87;12.00;;;6.40;99.90;;;;;;5015712;28;20216;-69
2021/11/15 02:26:00;;;;;;;20.27;9.57;;;6.40;99.90;;;;;;5016077;28;20415;-72
2021/11/15 02:28:29;;;;;;;27.17;12.83;;;6.40;99.90;;;;;;5015726;28;20823;-71
2021/11/15 02:31:28;;;;;;;16.23;9.83;;;6.40;99.90;;;;;;5015844;28;21336;-72
2021/11/15 02:33:59;;;;;;;23.10;12.07;;;6.40;99.90;;;;;;5024104;28;20454;-70
2021/11/15 02:36:29;;;;;;;29.97;11.90;;;6.40;99.90;;;;;;5035698;28;20652;-71
2021/11/15 02:38:55;;;;;;;21.67;9.50;;;6.40;99.90;;;;;;5036353;28;20489;-71
2021/11/15 02:41:22;;;;;;;21.77;11.80;;;6.40;99.90;;;;;;5036633;28;20426;-71
2021/11/15 02:43:48;;;;;;;23.43;12.50;;;6.40;99.90;;;;;;5036820;28;20501;-71
2021/11/15 02:46:14;;;;;;;18.77;12.50;;;6.50;99.90;;;;;;5036135;28;20510;-72
2021/11/15 02:48:40;;;;;;;21.87;11.43;;;6.50;99.90;;;;;;5035031;28;20190;-71
2021/11/15 02:51:06;;;;;;;26.17;11.27;;;6.50;99.90;;;;;;5035603;28;20406;-72
2021/11/15 02:53:34;;;;;;;19.47;11.20;;;6.50;99.90;;;;;;5035452;28;20497;-71
2021/11/15 02:56:02;;;;;;;20.87;10.27;;;6.50;99.90;;;;;;5035080;28;20407;-71
2021/11/15 02:58:31;;;;;;;22.67;11.90;;;6.50;99.90;;;;;;5034994;28;20452;-71
2021/11/15 03:01:02;;;;;;;18.80;11.60;;;6.50;99.90;;;;;;5035164;28;20409;-72
2021/11/15 03:03:27;;;;;;;22.70;11.33;;;6.50;99.90;;;;;;5034513;28;20406;-72
2021/11/15 03:05:54;;;;;;;23.43;11.50;;;6.50;99.90;;;;;;5034594;28;20836;-69
2021/11/15 03:08:39;;;;;;;23.03;10.10;;;6.50;99.90;;;;;;5034727;28;20933;-73
2021/11/15 03:11:06;;;;;;;27.50;13.33;;;6.50;99.90;;;;;;5034130;28;20453;-71
2021/11/15 03:13:39;;;;;;;19.10;11.10;;;6.50;99.90;;;;;;5034313;28;20501;-70
2021/11/15 03:16:11;;;;;;;23.63;11.87;;;6.50;99.90;;;;;;5034593;28;20788;-70
2021/11/15 03:18:39;;;;;;;17.27;11.10;;;6.50;99.90;;;;;;5033422;28;20458;-72
2021/11/15 03:21:18;;;;;;;20.67;12.80;;;6.40;99.90;;;;;;5035092;28;20406;-72
2021/11/15 03:23:44;;;;;;;26.20;12.43;;;6.50;99.90;;;;;;5033324;28;20446;-70
2021/11/15 03:26:11;;;;;;;27.10;13.10;;;6.50;99.90;;;;;;5033333;28;20453;-71
2021/11/15 03:28:54;;;;;;;20.10;11.40;;;6.50;99.90;;;;;;5036292;28;20407;-71
2021/11/15 03:31:34;;;;;;;22.57;11.10;;;6.50;99.90;;;;;;5038330;28;20428;-72
2021/11/15 03:34:08;;;;;;;24.27;11.43;;;6.40;99.90;;;;;;5037740;28;20845;-72
2021/11/15 03:36:35;;;;;;;22.47;13.60;;;6.50;99.90;;;;;;5037386;28;20431;-71
2021/11/15 03:39:05;;;;;;;22.57;12.40;;;6.40;99.90;;;;;;5038471;28;20544;-73
2021/11/15 03:41:38;;;;;;;21.10;14.50;;;6.40;99.90;;;;;;5038188;28;21031;-68
2021/11/15 03:44:05;;;;;;;21.33;11.27;;;6.40;99.90;;;;;;5035246;28;20406;-68
2021/11/15 03:46:32;;;;;;;25.30;12.63;;;6.40;99.90;;;;;;5035039;28;20466;-69
2021/11/15 03:48:58;;;;;;;19.40;10.67;;;6.30;99.90;;;;;;5035237;28;21033;-67
2021/11/15 03:51:24;;;;;;;19.73;10.47;;;6.30;99.90;;;;;;5035315;28;20490;-68
2021/11/15 03:53:52;;;;;;;19.47;11.13;;;6.30;99.90;;;;;;5035075;28;20213;-68
2021/11/15 03:56:26;;;;;;;20.27;10.73;;;6.30;99.90;;;;;;5035055;28;20175;-68
2021/11/15 03:58:52;;;;;;;23.27;13.27;;;6.30;99.90;;;;;;5035254;28;20480;-68
2021/11/15 04:01:22;;;;;;;21.07;13.03;;;6.30;99.90;;;;;;5035171;28;20838;-68
2021/11/15 04:03:47;;;;;;;20.53;11.00;;;6.30;99.90;;;;;;5034921;28;20497;-67
2021/11/15 04:06:26;;;;;;;19.73;10.47;;;6.30;99.90;;;;;;5034844;28;20537;-68
2021/11/15 04:08:58;;;;;;;22.20;12.47;;;6.30;99.90;;;;;;5034807;28;20612;-68
2021/11/15 04:11:57;;;;;;;24.80;11.77;;;6.30;99.90;;;;;;5034889;28;20495;-67
2021/11/15 04:14:23;;;;;;;26.87;13.37;;;6.30;99.90;;;;;;5034133;28;20788;-68
2021/11/15 04:16:48;;;;;;;21.67;10.83;;;6.30;99.90;;;;;;5034818;28;20425;-68
2021/11/15 04:19:18;;;;;;;21.57;12.47;;;6.30;99.90;;;;;;5033831;28;20223;-68
2021/11/15 04:21:43;;;;;;;25.20;12.43;;;6.20;99.90;;;;;;5034558;28;20179;-68
2021/11/15 04:24:09;;;;;;;20.47;12.20;;;6.30;99.90;;;;;;5034434;28;20407;-69
2021/11/15 04:26:35;;;;;;;25.37;15.67;;;6.20;99.90;;;;;;5034495;28;20243;-68
2021/11/15 04:29:01;;;;;;;22.30;12.77;;;6.20;99.90;;;;;;5034316;28;20570;-68
2021/11/15 04:31:27;;;;;;;25.60;12.07;;;6.20;99.90;;;;;;5034335;28;20172;-68
2021/11/15 04:34:15;;;;;;;20.73;12.70;;;6.20;99.90;;;;;;5034330;28;20403;-67
2021/11/15 04:36:40;;;;;;;20.33;11.90;;;6.20;99.90;;;;;;5033917;28;20188;-68
2021/11/15 04:39:06;;;;;;;29.10;13.97;;;6.20;99.90;;;;;;5034015;28;20485;-68
2021/11/15 04:41:31;;;;;;;23.30;13.20;;;6.20;99.90;;;;;;5033289;28;20403;-68
2021/11/15 04:44:00;;;;;;;26.50;13.80;;;6.10;99.90;;;;;;5033933;28;20414;-68
2021/11/15 04:46:25;;;;;;;26.77;13.70;;;6.10;99.90;;;;;;5033972;28;20283;-67
2021/11/15 04:48:51;;;;;;;22.40;12.40;;;6.10;99.90;;;;;;5034089;28;20880;-67
2021/11/15 04:51:16;;;;;;;21.63;10.90;;;6.10;99.90;;;;;;5033797;28;20171;-68
2021/11/15 04:53:42;;;;;;;19.67;10.93;;;6.20;99.90;;;;;;5034030;28;20262;-69
2021/11/15 04:56:08;;;;;;;19.03;10.57;;;6.20;99.90;;;;;;5034099;28;20172;-68
2021/11/15 04:58:36;;;;;;;22.30;13.73;;;6.20;99.90;;;;;;5033471;28;20528;-67
2021/11/15 05:01:04;;;;;;;22.20;12.10;;;6.20;99.90;;;;;;5033899;28;20325;-68
2021/11/15 05:03:35;;;;;;;19.67;10.97;;;6.20;99.90;;;;;;5033851;28;20406;-67
2021/11/15 05:06:00;;;;;;;23.70;13.37;;;6.20;99.90;;;;;;5033704;28;20410;-67
2021/11/15 05:08:26;;;;;;;35.37;10.87;;;6.20;99.90;;;;;;5033844;28;20762;-67
2021/11/15 05:10:51;;;;;;;17.80;9.50;;;6.20;99.90;;;;;;5033436;28;20245;-67
2021/11/15 05:13:17;;;;;;;27.47;13.63;;;6.20;99.90;;;;;;5033545;28;20230;-68
2021/11/15 05:15:42;;;;;;;26.67;12.93;;;6.20;99.90;;;;;;5033475;28;20175;-68
2021/11/15 05:18:13;;;;;;;27.47;13.17;;;6.10;99.90;;;;;;5033632;28;20219;-68
2021/11/15 05:20:39;;;;;;;27.67;14.83;;;6.10;99.90;;;;;;5033433;28;20265;-68
2021/11/15 05:23:05;;;;;;;25.80;14.20;;;6.10;99.90;;;;;;5033432;28;20432;-69
2021/11/15 05:25:30;;;;;;;32.37;14.93;;;6.10;99.90;;;;;;5033400;28;20267;-67
2021/11/15 05:27:57;;;;;;;30.97;13.30;;;6.10;99.90;;;;;;5033146;28;20546;-68
2021/11/15 05:30:22;;;;;;;27.90;14.73;;;6.10;99.90;;;;;;5033383;28;20206;-69
2021/11/15 05:32:51;;;;;;;29.57;12.80;;;6.20;99.90;;;;;;5033756;28;20402;-69
2021/11/15 05:35:18;;;;;;;21.30;10.73;;;6.20;99.90;;;;;;5033476;28;20179;-68
2021/11/15 05:37:52;;;;;;;25.70;14.70;;;6.20;99.90;;;;;;5033920;28;20421;-68
2021/11/15 05:40:19;;;;;;;26.70;12.80;;;6.20;99.90;;;;;;5032938;28;20434;-67
2021/11/15 05:42:45;;;;;;;18.17;10.67;;;6.20;99.90;;;;;;5033342;28;20564;-68
2021/11/15 05:45:11;;;;;;;18.70;12.40;;;6.20;99.90;;;;;;5031662;28;20418;-68
2021/11/15 05:47:38;;;;;;;23.57;13.00;;;6.20;99.90;;;;;;5033225;28;20461;-67
2021/11/15 05:50:06;;;;;;;26.23;12.37;;;6.20;99.90;;;;;;5033045;28;20431;-67
2021/11/15 05:52:31;;;;;;;28.20;13.30;;;6.20;99.90;;;;;;5032046;28;20475;-67
2021/11/15 05:54:57;;;;;;;15.30;13.07;;;6.20;99.90;;;;;;5032685;28;20839;-67
2021/11/15 05:57:25;;;;;;;23.63;12.97;;;6.20;99.90;;;;;;5032947;28;20182;-68
2021/11/15 05:59:51;;;;;;;20.40;13.60;;;6.20;99.90;;;;;;5032533;28;20187;-67
2021/11/15 06:02:19;;;;;;;22.13;12.20;;;6.20;99.90;;;;;;5032948;28;20413;-68
2021/11/15 06:04:45;;;;;;;25.43;11.03;;;6.20;99.90;;;;;;5032424;28;20191;-68
2021/11/15 06:07:10;;;;;;;17.60;10.90;;;6.20;99.90;;;;;;5032518;28;20450;-68
2021/11/15 06:09:35;;;;;;;29.47;12.87;;;6.20;99.90;;;;;;5032371;28;20183;-68
2021/11/15 06:12:04;;;;;;;24.07;15.10;;;6.20;99.90;;;;;;5032596;28;20254;-66
2021/11/15 06:14:30;;;;;;;21.30;12.20;;;6.20;99.90;;;;;;5032381;28;20178;-67
2021/11/15 06:16:55;;;;;;;26.17;13.77;;;6.20;99.90;;;;;;5032363;28;20410;-68
2021/11/15 06:19:21;;;;;;;28.03;12.57;;;6.20;99.90;;;;;;5032170;28;20203;-68
2021/11/15 06:21:46;;;;;;;25.63;12.00;;;6.20;99.90;;;;;;5032325;28;20171;-69
2021/11/15 06:24:12;;;;;;;19.97;13.13;;;6.30;99.90;;;;;;5032307;28;20258;-68
2021/11/15 06:26:37;;;;;;;23.00;11.77;;;6.30;99.90;;;;;;5032445;28;20614;-67
2021/11/15 06:29:03;;;;;;;26.13;12.20;;;6.30;99.90;;;;;;5032856;28;20646;-68
2021/11/15 06:31:29;;;;;;;30.17;13.73;;;6.30;99.90;;;;;;5032107;28;20631;-67
2021/11/15 06:33:54;;;;;;;27.70;11.80;;;6.30;99.90;;;;;;5031841;28;20199;-68
2021/11/15 06:36:22;;;;;;;19.47;9.83;;;6.20;99.90;;;;;;5032153;28;20167;-67
2021/11/15 06:38:49;;;;;;;18.83;10.97;;;6.30;99.90;;;;;;5031728;28;20180;-67
2021/11/15 06:41:15;;;;;;;28.57;15.40;;;6.30;99.90;;;;;;5031665;28;20455;-66
2021/11/15 06:43:40;;;;;;;21.60;11.40;;;6.30;99.90;;;;;;5031752;28;20406;-67
2021/11/15 06:46:06;;;;;;;29.47;13.30;;;6.30;99.90;;;;;;5031500;28;20168;-67
2021/11/15 06:48:37;;;;;;;29.63;11.87;;;6.20;99.90;;;;;;5031794;28;20253;-67
2021/11/15 06:51:06;;;;;;;24.93;12.83;;;6.30;99.90;;;;;;5032247;28;20167;-68
2021/11/15 06:53:39;;;;;;;17.50;9.57;;;6.20;99.90;;;;;;5031958;28;20777;-68
2021/11/15 06:56:06;;;;;;;23.30;12.30;;;6.20;99.90;;;;;;5032075;28;20437;-68
2021/11/15 06:58:35;;;;;;;23.43;14.10;;;6.20;99.90;;;;;;5031938;28;20476;-69
2021/11/15 07:01:01;;;;;;;24.20;12.63;;;6.20;99.90;;;;;;5030563;28;20410;-67
2021/11/15 07:03:27;;;;;;;22.50;10.57;;;6.30;99.90;;;;;;5030796;28;20430;-68
2021/11/15 07:05:56;;;;;;;21.40;12.00;;;6.20;99.90;;;;;;5031566;28;20425;-67
2021/11/15 07:08:21;;;;;;;23.53;13.63;;;6.20;99.90;;;;;;5031857;28;20179;-67
2021/11/15 07:10:47;;;;;;;18.50;11.07;;;6.30;99.90;;;;;;5031540;28;20469;-68
2021/11/15 07:13:13;;;;;;;21.87;11.00;;;6.30;99.90;;;;;;5032164;28;20576;-69
2021/11/15 07:15:40;;;;;;;20.73;11.20;;;6.20;99.90;;;;;;5031654;28;20180;-68
2021/11/15 07:18:05;;;;;;;17.07;12.20;;;6.20;99.90;;;;;;5031386;28;20944;-68
2021/11/15 07:20:31;;;;;;;26.87;10.93;;;6.20;99.90;;;;;;5031335;28;20437;-68
2021/11/15 07:22:57;;;;;;;22.00;13.10;;;6.20;99.90;;;;;;5031574;28;20172;-68
2021/11/15 07:25:22;;;;;;;17.80;12.20;;;6.30;99.90;;;;;;5032055;28;20171;-68
2021/11/15 07:27:50;;;;;;;18.97;11.37;;;6.20;99.90;;;;;;5031761;28;20199;-69
2021/11/15 07:30:16;;;;;;;22.83;10.70;;;6.30;99.90;;;;;;5030965;28;20199;-68
2021/11/15 07:32:42;;;;;;;14.30;9.43;;;6.30;99.90;;;;;;5031567;28;20917;-68
2021/11/15 07:35:08;;;;;;;21.00;10.87;;;6.30;99.90;;;;;;5031573;28;20179;-68
2021/11/15 07:37:35;;;;;;;18.10;10.03;;;6.30;99.90;;;;;;5031430;28;20191;-68
2021/11/15 07:40:04;;;;;;;27.97;10.97;;;6.30;99.90;;;;;;5031274;28;20457;-67
2021/11/15 07:42:29;;;;;;;19.57;11.00;;;6.40;99.90;;;;;;5031369;28;20415;-69
2021/11/15 07:44:55;;;;;;;15.93;10.30;;;6.40;99.90;;;;;;5031253;28;20413;-69
2021/11/15 07:47:20;;;;;;;18.53;10.00;;;6.40;99.90;;;;;;5031073;28;20191;-70
2021/11/15 07:49:46;;;;;;;26.20;11.93;;;6.30;99.90;;;;;;5031166;28;20639;-68
2021/11/15 07:52:13;;;;;;;16.20;7.87;;;6.30;99.90;;;;;;5031381;28;20176;-70
2021/11/15 07:54:39;;;;;;;12.77;7.70;;;6.40;99.90;;;;;;5031164;28;20178;-70
2021/11/15 07:57:06;;;;;;;17.30;9.27;;;6.30;99.90;;;;;;5032434;28;20410;-72
2021/11/15 07:59:35;;;;;;;15.73;8.40;;;6.30;99.90;;;;;;5029243;28;20500;-71
2021/11/15 08:02:00;;;;;;;20.07;9.10;;;6.40;99.90;;;;;;5028389;28;20502;-72
2021/11/15 08:04:26;;;;;;;15.70;9.87;;;6.40;99.90;;;;;;5024145;28;20547;-72
2021/11/15 08:06:51;;;;;;;19.03;9.17;;;6.50;99.90;;;;;;5013931;28;20208;-72
2021/11/15 08:09:18;;;;;;;20.93;9.70;;;6.40;99.90;;;;;;5015353;28;20577;-72
2021/11/15 08:11:45;;;;;;;13.10;8.77;;;6.40;99.90;;;;;;5013292;28;20172;-69
2021/11/15 08:14:12;;;;;;;19.43;8.43;;;6.30;99.90;;;;;;5012831;28;20437;-70
2021/11/15 08:16:38;;;;;;;14.83;8.87;;;6.30;99.90;;;;;;5018636;28;20419;-72
2021/11/15 08:19:04;;;;;;;16.10;8.97;;;6.40;99.90;;;;;;5016551;28;20450;-71
2021/11/15 08:21:32;;;;;;;22.27;9.50;;;6.40;99.90;;;;;;5016070;28;20514;-72
2021/11/15 08:24:25;;;;;;;23.43;10.47;;;6.40;99.90;;;;;;5016153;28;20425;-72
2021/11/15 08:27:01;;;;;;;21.57;12.83;;;6.40;99.90;;;;;;5015906;28;20453;-70
2021/11/15 08:29:34;;;;;;;15.00;9.10;;;6.40;99.90;;;;;;5015091;28;20970;-71
2021/11/15 08:39:24;;;;;;;14.23;8.00;;;6.50;99.90;;;;;;5036243;28;20516;-71
2021/11/15 08:41:55;;;;;;;16.67;8.87;;;6.50;99.90;;;;;;5034457;28;20414;-71
2021/11/15 08:44:21;;;;;;;21.53;11.27;;;6.50;99.90;;;;;;5036266;28;20418;-70
2021/11/15 08:46:50;;;;;;;12.63;8.10;;;6.50;99.90;;;;;;5036081;28;20442;-70
2021/11/15 08:49:28;;;;;;;16.60;8.37;;;6.60;99.90;;;;;;5036250;28;20572;-71
2021/11/15 08:51:56;;;;;;;14.90;7.53;;;6.50;99.90;;;;;;5034035;28;20398;-75
2021/11/15 08:54:23;;;;;;;21.87;12.60;;;6.50;99.90;;;;;;5033893;28;20460;-69
2021/11/15 08:56:54;;;;;;;18.13;11.00;;;6.70;99.90;;;;;;5023156;28;20442;-70
2021/11/15 08:59:20;;;;;;;14.73;8.00;;;6.50;99.90;;;;;;5020446;28;20843;-69
2021/11/15 09:01:52;;;;;;;11.63;8.20;;;6.50;99.90;;;;;;5033823;28;20417;-73
2021/11/15 09:04:18;;;;;;;15.30;7.50;;;6.40;99.90;;;;;;5033944;28;20411;-69
2021/11/15 09:06:45;;;;;;;14.50;8.23;;;6.40;99.90;;;;;;5032840;28;20461;-69
2021/11/15 09:09:15;;;;;;;10.40;5.87;;;6.40;99.90;;;;;;5033683;28;20508;-69
2021/11/15 09:11:51;;;;;;;14.60;8.03;;;6.50;99.90;;;;;;5033875;28;20407;-68
2021/11/15 09:14:19;;;;;;;9.87;7.30;;;6.50;99.90;;;;;;5033831;28;20406;-68
2021/11/15 09:16:50;;;;;;;17.83;7.97;;;6.40;99.90;;;;;;5033791;28;20441;-68
2021/11/15 09:19:18;;;;;;;21.27;9.97;;;6.50;99.90;;;;;;5033403;28;20511;-68
2021/11/15 09:21:47;;;;;;;17.30;9.40;;;6.50;99.90;;;;;;5033800;28;20395;-71
2021/11/15 09:24:13;;;;;;;20.27;9.10;;;6.50;99.90;;;;;;5033757;28;20411;-69
2021/11/15 09:26:39;;;;;;;15.43;8.33;;;6.50;99.90;;;;;;5033060;28;20796;-70
2021/11/15 09:29:07;;;;;;;15.53;8.00;;;6.40;99.90;;;;;;5033754;28;21006;-69
2021/11/15 09:31:34;;;;;;;19.20;8.83;;;6.40;99.90;;;;;;5033293;28;20418;-69
2021/11/15 09:34:00;;;;;;;14.93;8.17;;;6.40;99.90;;;;;;5033726;28;20406;-71
2021/11/15 09:36:26;;;;;;;19.93;11.33;;;6.50;99.90;;;;;;5033467;28;21136;-72
2021/11/15 09:38:57;;;;;;;16.90;8.40;;;6.40;99.90;;;;;;5033684;28;20897;-69
2021/11/15 09:41:27;;;;;;;10.63;6.90;;;6.40;99.90;;;;;;5032045;28;20262;-69
2021/11/15 09:43:53;;;;;;;16.23;9.40;;;6.50;99.90;;;;;;5033153;28;20422;-70
2021/11/15 09:46:27;;;;;;;18.10;8.37;;;6.50;99.90;;;;;;5033058;28;20509;-68
2021/11/15 09:49:10;;;;;;;15.23;9.47;;;6.50;99.90;;;;;;5033155;28;20422;-69
2021/11/15 09:51:42;;;;;;;12.93;7.93;;;6.50;99.90;;;;;;5033169;28;20789;-68
2021/11/15 09:54:09;;;;;;;15.83;10.07;;;6.50;99.90;;;;;;5037745;28;20441;-68
2021/11/15 09:56:35;;;;;;;14.33;9.60;;;6.50;99.90;;;;;;5033374;28;20418;-70
2021/11/15 09:59:05;;;;;;;17.27;9.10;;;6.40;99.90;;;;;;5032939;28;20426;-70
2021/11/15 10:01:32;;;;;;;13.53;7.27;;;6.50;99.90;;;;;;5032651;28;20214;-70
2021/11/15 10:03:58;;;;;;;13.43;8.50;;;6.50;99.90;;;;;;5032937;28;20923;-70
2021/11/15 10:06:23;;;;;;;19.63;7.60;;;6.50;99.90;;;;;;5032813;28;20442;-69
2021/11/15 10:08:53;;;;;;;15.17;9.43;;;6.50;99.90;;;;;;5017632;28;20501;-70
2021/11/15 10:11:21;;;;;;;14.83;7.23;;;6.50;99.90;;;;;;5011379;28;20570;-71
2021/11/15 10:13:48;;;;;;;22.10;9.43;;;6.50;99.90;;;;;;5012569;28;20918;-71
2021/11/15 10:16:18;;;;;;;15.37;7.90;;;6.50;99.90;;;;;;5012953;28;20465;-69
2021/11/15 10:19:04;;;;;;;15.30;8.27;;;6.50;99.90;;;;;;5012554;28;20431;-70
2021/11/15 10:21:41;;;;;;;17.90;10.43;;;6.50;99.90;;;;;;5012630;28;20775;-70
2021/11/15 10:24:09;;;;;;;13.37;7.50;;;6.50;99.90;;;;;;5012850;28;20403;-70
2021/11/15 10:26:44;;;;;;;9.20;6.77;;;6.50;99.90;;;;;;5012565;28;20458;-70
2021/11/15 10:29:15;;;;;;;16.87;7.83;;;6.60;99.90;;;;;;5012668;28;20422;-70
2021/11/15 10:31:45;;;;;;;11.20;6.97;;;6.50;99.90;;;;;;5012585;28;20453;-70
2021/11/15 10:34:25;;;;;;;15.93;8.40;;;6.50;99.90;;;;;;5012401;28;20941;-69
2021/11/15 10:37:06;;;;;;;15.90;8.13;;;6.60;99.90;;;;;;5012639;28;20729;-69
2021/11/15 10:39:41;;;;;;;17.47;7.27;;;6.60;99.90;;;;;;5012190;28;20792;-69
2021/11/15 10:42:26;;;;;;;16.50;8.40;;;6.50;99.90;;;;;;5012247;28;20453;-69
2021/11/15 10:44:59;;;;;;;18.10;8.10;;;6.50;99.90;;;;;;5023709;28;20425;-69
2021/11/15 10:47:59;;;;;;;15.90;8.03;;;6.50;99.90;;;;;;5031937;28;21034;-69
2021/11/15 10:50:44;;;;;;;17.47;8.63;;;6.50;99.90;;;;;;5030382;28;20434;-70
2021/11/15 10:53:18;;;;;;;12.70;9.90;;;6.50;99.90;;;;;;5031906;28;20901;-69
2021/11/15 10:56:04;;;;;;;12.97;7.90;;;6.50;99.90;;;;;;5032089;28;20409;-70
2021/11/15 10:58:38;;;;;;;9.37;7.87;;;6.50;99.90;;;;;;5032081;28;20407;-68
2021/11/15 11:01:05;;;;;;;11.07;6.70;;;6.50;99.90;;;;;;5031775;28;20803;-68
2021/11/15 11:03:31;;;;;;;15.57;8.63;;;6.50;99.90;;;;;;5030914;28;20501;-69
2021/11/15 11:06:01;;;;;;;8.13;6.00;;;6.50;99.90;;;;;;5031813;28;20407;-69
2021/11/15 11:08:48;;;;;;;10.80;7.80;;;6.50;99.90;;;;;;5031330;28;20450;-70
2021/11/15 11:11:24;;;;;;;8.50;5.47;;;6.40;99.90;;;;;;5031453;28;20488;-68
2021/11/15 11:13:58;;;;;;;14.50;7.30;;;6.50;99.90;;;;;;5031564;28;20500;-69
2021/11/15 11:16:39;;;;;;;15.93;7.10;;;6.50;99.90;;;;;;5032042;28;20809;-67
2021/11/15 11:21:57;;;;;;;12.53;8.37;;;6.50;99.90;;;;;;5031629;28;20449;-69
2021/11/15 11:27:13;;;;;;;10.47;7.17;;;6.50;99.90;;;;;;5031724;28;20452;-69
2021/11/15 11:29:45;;;;;;;11.67;6.70;;;6.60;99.90;;;;;;5031341;28;20423;-69
2021/11/15 11:32:15;;;;;;;16.10;7.23;;;6.50;99.90;;;;;;5031401;28;20489;-68
2021/11/15 11:34:42;;;;;;;12.93;9.90;;;6.50;99.90;;;;;;5031265;28;20433;-67
2021/11/15 11:37:13;;;;;;;12.57;7.00;;;6.50;99.90;;;;;;5031472;28;20411;-72
2021/11/15 11:39:44;;;;;;;14.63;7.90;;;6.60;99.90;;;;;;5031353;28;20427;-72
2021/11/15 11:42:14;;;;;;;12.90;8.50;;;6.60;99.90;;;;;;5031756;28;20772;-71
2021/11/15 11:44:39;;;;;;;20.47;7.67;;;6.60;99.90;;;;;;5031439;28;20438;-68
2021/11/15 11:47:08;;;;;;;23.47;10.37;;;6.60;99.90;;;;;;5031329;28;20478;-69
2021/11/15 11:49:36;;;;;;;11.10;8.20;;;6.60;99.90;;;;;;5031691;28;20210;-69
2021/11/15 11:55:20;;;;;;;12.47;8.00;;;6.70;99.90;;;;;;5035515;28;20440;-70
2021/11/15 11:57:46;;;;;;;16.97;7.83;;;6.60;99.90;;;;;;5035541;28;20467;-72
2021/11/15 12:00:14;;;;;;;12.63;8.43;;;6.60;99.90;;;;;;5035073;28;20422;-70
2021/11/15 12:02:42;;;;;;;11.77;6.40;;;6.60;99.90;;;;;;5035270;28;20214;-69
2021/11/15 12:05:11;;;;;;;11.17;6.50;;;6.70;99.90;;;;;;5034679;28;20429;-70
2021/11/15 12:07:50;;;;;;;18.27;9.30;;;6.60;99.90;;;;;;5034756;28;20961;-69
2021/11/15 12:10:41;;;;;;;15.30;7.30;;;6.60;99.90;;;;;;5034586;28;20471;-69
2021/11/15 12:13:10;;;;;;;15.10;7.43;;;6.60;99.90;;;;;;5034916;28;20403;-69
2021/11/15 12:16:02;;;;;;;15.50;7.00;;;6.60;99.90;;;;;;5034425;28;20889;-69
2021/11/15 12:18:29;;;;;;;15.60;8.17;;;6.60;99.90;;;;;;5034333;28;20438;-68
2021/11/15 12:21:13;;;;;;;11.80;9.00;;;6.70;99.90;;;;;;5033761;28;20964;-70
2021/11/15 12:24:06;;;;;;;13.03;8.00;;;6.60;99.90;;;;;;5034230;28;20407;-69
2021/11/15 12:26:45;;;;;;;14.63;7.50;;;6.60;99.90;;;;;;5034026;28;21115;-68
2021/11/15 12:29:27;;;;;;;18.00;8.73;;;6.60;99.90;;;;;;5034753;28;20677;-68
2021/11/15 12:32:00;;;;;;;10.97;5.60;;;6.60;99.90;;;;;;5034558;28;20773;-69
2021/11/15 12:34:28;;;;;;;16.47;9.70;;;6.50;99.90;;;;;;5033007;28;20898;-68
2021/11/15 12:36:55;;;;;;;16.60;8.03;;;6.60;99.90;;;;;;5034321;28;20409;-69
2021/11/15 12:39:27;;;;;;;12.53;7.77;;;6.50;99.90;;;;;;5034112;28;20454;-68
2021/11/15 12:41:55;;;;;;;11.43;6.77;;;6.50;99.90;;;;;;5034165;28;20456;-68
2021/11/15 12:44:41;;;;;;;13.00;6.87;;;6.60;99.90;;;;;;5033983;28;20410;-68
2021/11/15 12:47:14;;;;;;;10.70;8.70;;;6.50;99.90;;;;;;5028130;28;20459;-68
2021/11/15 12:49:53;;;;;;;12.70;7.43;;;6.40;99.90;;;;;;5014048;28;20443;-69
2021/11/15 12:52:22;;;;;;;15.53;7.80;;;6.40;99.90;;;;;;5014369;28;20450;-68
2021/11/15 12:54:50;;;;;;;16.60;7.20;;;6.40;99.90;;;;;;5012823;28;20408;-69
2021/11/15 12:57:16;;;;;;;12.20;6.40;;;6.40;99.90;;;;;;5014179;28;20419;-68
2021/11/15 12:59:54;;;;;;;13.30;8.83;;;6.40;99.90;;;;;;5012578;28;20809;-69
2021/11/15 13:02:23;;;;;;;11.57;6.60;;;6.40;99.90;;;;;;5033704;28;20542;-68
2021/11/15 13:04:49;;;;;;;15.40;7.03;;;6.40;99.90;;;;;;5033761;28;20398;-68
2021/11/15 13:07:16;;;;;;;13.63;8.03;;;6.40;99.90;;;;;;5032223;28;20996;-69